Decoded Metar for KSTL (ST. LOUIS in MO, USA) (IATA:STL) | Meteo·Mobile Aviation Weather
aviador You're here:

KSTL Decoded Metar

ST. LOUIS in MO, USA
Report Time2018-11-15 13:19:00
UTC Time2018-11-15 13:27:50
Flight Rules ifr IFR
Wind320° at 06 kt
W.Decomp.*RWY 30: 5.6 kt HW 2.2 kt RCW
RWY 29: 5.1 kt HW 3.1 kt RCW
RWY 24: 0.9 kt HW 5.9 kt RCW
W.Rank320° ranks 11
Current wind is below 320° avg. (8.7)
Visibility3219 m
Phenomena:Light Snow
Mist
Clouds:Broken 006 Hf
Overcast 011 Hf
Expected CloudBase > 400 ft AGL from Temp-Dew spread
Ceiling600 ft
Temp-2°C (ISA -16)
Dew Point-3°C (93% RH)
AAT-6.5°C
QNH1020 hPa
Density Alt-1,555 ft
Elevation561 ft
Report Wrong Elevation
Raw Report
KSTL 151319Z 32006KT 2SM -SN BR BKN006 OVC011 M02/M03 A3013 RMK
AO2 P0001 T10221028=

Extra information for KSTL:More info

Metar Taf Metar & Taf Last 4 Metars F.Rules Stats Wind Profile Meteogram Temp Stats Airport Information Weather charts Add Link Nearby VenuesMetar ALERT Operation Metar Decoded Social comments

AIRNAV info for KSTL